sensor_id;sensor_type;location;lat;lon;timestamp;pressure;altitude;pressure_sealevel;temperature;humidity
46009;BME280;39597;51.438;7.006;2022-08-19T00:01:49;99959.69;;;19.83;76.08
46009;BME280;39597;51.438;7.006;2022-08-19T00:04:17;99959.28;;;19.81;76.22
46009;BME280;39597;51.438;7.006;2022-08-19T00:06:44;99954.91;;;19.91;75.95
46009;BME280;39597;51.438;7.006;2022-08-19T00:09:12;99960.88;;;19.82;76.12
46009;BME280;39597;51.438;7.006;2022-08-19T00:11:39;99963.63;;;19.78;76.54
46009;BME280;39597;51.438;7.006;2022-08-19T00:14:07;99964.03;;;19.77;76.40
46009;BME280;39597;51.438;7.006;2022-08-19T00:16:34;99966.78;;;19.77;76.47
46009;BME280;39597;51.438;7.006;2022-08-19T00:18:59;99971.78;;;20.10;75.41
46009;BME280;39597;51.438;7.006;2022-08-19T00:21:26;99965.41;;;20.21;74.96
46009;BME280;39597;51.438;7.006;2022-08-19T00:23:52;99964.22;;;20.22;74.70
46009;BME280;39597;51.438;7.006;2022-08-19T00:26:18;99964.66;;;20.17;74.98
46009;BME280;39597;51.438;7.006;2022-08-19T00:28:43;99961.50;;;20.11;75.23
46009;BME280;39597;51.438;7.006;2022-08-19T00:31:09;99963.50;;;20.07;75.21
46009;BME280;39597;51.438;7.006;2022-08-19T00:33:35;99954.94;;;19.83;76.31
46009;BME280;39597;51.438;7.006;2022-08-19T00:36:02;99960.13;;;19.67;76.71
46009;BME280;39597;51.438;7.006;2022-08-19T00:38:29;99951.50;;;19.55;77.37
46009;BME280;39597;51.438;7.006;2022-08-19T00:40:55;99949.50;;;19.48;77.52
46009;BME280;39597;51.438;7.006;2022-08-19T00:43:22;99950.69;;;19.43;77.84
46009;BME280;39597;51.438;7.006;2022-08-19T00:45:48;99953.75;;;19.81;76.60
46009;BME280;39597;51.438;7.006;2022-08-19T00:48:15;99946.66;;;19.80;76.41
46009;BME280;39597;51.438;7.006;2022-08-19T00:50:43;99956.59;;;19.67;76.74
46009;BME280;39597;51.438;7.006;2022-08-19T00:53:14;99957.81;;;19.55;77.29
46009;BME280;39597;51.438;7.006;2022-08-19T00:55:42;99956.19;;;19.47;77.68
46009;BME280;39597;51.438;7.006;2022-08-19T00:58:12;99954.28;;;19.33;78.26
46009;BME280;39597;51.438;7.006;2022-08-19T01:00:39;99953.13;;;19.06;79.53
46009;BME280;39597;51.438;7.006;2022-08-19T01:03:10;99948.41;;;19.03;79.39
46009;BME280;39597;51.438;7.006;2022-08-19T01:05:36;99948.78;;;18.98;79.95
46009;BME280;39597;51.438;7.006;2022-08-19T01:08:04;99954.69;;;19.21;78.99
46009;BME280;39597;51.438;7.006;2022-08-19T01:10:33;99940.53;;;19.05;79.39
46009;BME280;39597;51.438;7.006;2022-08-19T01:13:00;99943.25;;;19.08;79.61
46009;BME280;39597;51.438;7.006;2022-08-19T01:15:31;99948.38;;;19.10;79.54
46009;BME280;39597;51.438;7.006;2022-08-19T01:18:00;99947.59;;;18.95;79.70
46009;BME280;39597;51.438;7.006;2022-08-19T01:20:26;99952.34;;;18.94;80.18
46009;BME280;39597;51.438;7.006;2022-08-19T01:22:57;99955.09;;;18.91;80.29
46009;BME280;39597;51.438;7.006;2022-08-19T01:25:29;99950.38;;;18.77;80.71
46009;BME280;39597;51.438;7.006;2022-08-19T01:27:56;99952.34;;;18.66;81.23
46009;BME280;39597;51.438;7.006;2022-08-19T01:30:32;99953.94;;;18.71;81.05
46009;BME280;39597;51.438;7.006;2022-08-19T01:32:59;99958.22;;;18.61;81.76
46009;BME280;39597;51.438;7.006;2022-08-19T01:35:30;99955.06;;;18.59;81.61
46009;BME280;39597;51.438;7.006;2022-08-19T01:38:00;99942.84;;;18.39;82.75
46009;BME280;39597;51.438;7.006;2022-08-19T01:40:30;99943.63;;;18.32;82.94
46009;BME280;39597;51.438;7.006;2022-08-19T01:42:57;99957.75;;;18.30;82.95
46009;BME280;39597;51.438;7.006;2022-08-19T01:45:24;99947.53;;;18.20;83.22
46009;BME280;39597;51.438;7.006;2022-08-19T01:47:50;99952.63;;;18.18;83.70
46009;BME280;39597;51.438;7.006;2022-08-19T01:50:16;99951.84;;;18.21;83.41
46009;BME280;39597;51.438;7.006;2022-08-19T01:52:42;99947.59;;;18.63;81.73
46009;BME280;39597;51.438;7.006;2022-08-19T01:55:12;99940.53;;;18.66;81.73
46009;BME280;39597;51.438;7.006;2022-08-19T01:57:39;99945.59;;;18.39;82.63
46009;BME280;39597;51.438;7.006;2022-08-19T02:00:10;99945.16;;;18.29;82.98
46009;BME280;39597;51.438;7.006;2022-08-19T02:02:36;99947.53;;;18.20;83.55
46009;BME280;39597;51.438;7.006;2022-08-19T02:05:02;99948.72;;;18.19;83.63
46009;BME280;39597;51.438;7.006;2022-08-19T02:07:28;99953.03;;;18.17;83.93
46009;BME280;39597;51.438;7.006;2022-08-19T02:09:54;99945.16;;;18.19;83.85
46009;BME280;39597;51.438;7.006;2022-08-19T02:12:20;99942.81;;;18.24;83.37
46009;BME280;39597;51.438;7.006;2022-08-19T02:14:46;99933.81;;;18.49;82.50
46009;BME280;39597;51.438;7.006;2022-08-19T02:17:11;99933.78;;;18.42;83.04
46009;BME280;39597;51.438;7.006;2022-08-19T02:19:36;99923.94;;;18.37;83.03
46009;BME280;39597;51.438;7.006;2022-08-19T02:22:02;99934.16;;;18.37;82.97
46009;BME280;39597;51.438;7.006;2022-08-19T02:24:27;99932.59;;;18.36;82.95
46009;BME280;39597;51.438;7.006;2022-08-19T02:26:53;99935.75;;;18.41;82.32
46009;BME280;39597;51.438;7.006;2022-08-19T02:29:18;99945.59;;;18.60;82.22
46009;BME280;39597;51.438;7.006;2022-08-19T02:31:43;99948.38;;;18.60;81.94
46009;BME280;39597;51.438;7.006;2022-08-19T02:34:09;99945.19;;;18.47;82.34
46009;BME280;39597;51.438;7.006;2022-08-19T02:36:34;99947.56;;;18.45;82.79
46009;BME280;39597;51.438;7.006;2022-08-19T02:38:59;99949.91;;;18.40;83.30
46009;BME280;39597;51.438;7.006;2022-08-19T02:41:26;99945.97;;;18.41;82.87
46009;BME280;39597;51.438;7.006;2022-08-19T02:43:54;99957.78;;;18.45;82.66
46009;BME280;39597;51.438;7.006;2022-08-19T02:46:25;99943.63;;;18.46;82.68
46009;BME280;39597;51.438;7.006;2022-08-19T02:48:55;99951.50;;;18.44;82.66
46009;BME280;39597;51.438;7.006;2022-08-19T02:51:31;99937.31;;;18.46;82.72
46009;BME280;39597;51.438;7.006;2022-08-19T02:53:57;99944.84;;;18.49;82.60
46009;BME280;39597;51.438;7.006;2022-08-19T02:56:22;99948.75;;;18.55;82.33
46009;BME280;39597;51.438;7.006;2022-08-19T02:58:49;99951.13;;;18.56;82.11
46009;BME280;39597;51.438;7.006;2022-08-19T03:01:29;99953.13;;;18.63;82.07
46009;BME280;39597;51.438;7.006;2022-08-19T03:03:58;99948.41;;;18.71;81.66
46009;BME280;39597;51.438;7.006;2022-08-19T03:06:24;99942.91;;;18.67;81.81
46009;BME280;39597;51.438;7.006;2022-08-19T03:08:50;99951.94;;;18.64;81.77
46009;BME280;39597;51.438;7.006;2022-08-19T03:11:24;99942.09;;;18.63;81.71
46009;BME280;39597;51.438;7.006;2022-08-19T03:13:50;99951.13;;;18.60;81.81
46009;BME280;39597;51.438;7.006;2022-08-19T03:16:17;99948.41;;;18.67;81.57
46009;BME280;39597;51.438;7.006;2022-08-19T03:18:42;99940.53;;;18.66;81.84
46009;BME280;39597;51.438;7.006;2022-08-19T03:21:08;99947.19;;;18.61;81.89
46009;BME280;39597;51.438;7.006;2022-08-19T03:23:34;99946.41;;;18.60;81.94
46009;BME280;39597;51.438;7.006;2022-08-19T03:26:04;99945.22;;;18.54;81.86
46009;BME280;39597;51.438;7.006;2022-08-19T03:28:31;99943.25;;;18.55;82.02
46009;BME280;39597;51.438;7.006;2022-08-19T03:33:29;99950.72;;;18.44;82.54
46009;BME280;39597;51.438;7.006;2022-08-19T03:36:08;99946.78;;;18.45;82.66
46009;BME280;39597;51.438;7.006;2022-08-19T03:38:42;99953.16;;;18.70;81.66
46009;BME280;39597;51.438;7.006;2022-08-19T03:41:11;99945.66;;;18.67;81.30
46009;BME280;39597;51.438;7.006;2022-08-19T03:43:38;99947.97;;;18.54;82.40
46009;BME280;39597;51.438;7.006;2022-08-19T03:46:07;99947.94;;;18.37;83.13
46009;BME280;39597;51.438;7.006;2022-08-19T03:48:33;99940.47;;;18.41;82.75
46009;BME280;39597;51.438;7.006;2022-08-19T03:50:59;99943.63;;;18.36;82.99
46009;BME280;39597;51.438;7.006;2022-08-19T03:53:27;99942.44;;;18.47;82.63
46009;BME280;39597;51.438;7.006;2022-08-19T03:55:53;99944.88;;;18.70;81.61
46009;BME280;39597;51.438;7.006;2022-08-19T03:58:20;99949.94;;;18.61;82.08
46009;BME280;39597;51.438;7.006;2022-08-19T04:00:45;99956.69;;;18.85;80.74
46009;BME280;39597;51.438;7.006;2022-08-19T04:03:10;99949.19;;;18.64;81.30
46009;BME280;39597;51.438;7.006;2022-08-19T04:05:36;99954.66;;;18.39;82.92
46009;BME280;39597;51.438;7.006;2022-08-19T04:08:03;99957.41;;;18.43;82.64
46009;BME280;39597;51.438;7.006;2022-08-19T04:10:34;99967.22;;;18.29;82.83
46009;BME280;39597;51.438;7.006;2022-08-19T04:13:00;99949.91;;;18.36;82.84
46009;BME280;39597;51.438;7.006;2022-08-19T04:15:25;99945.22;;;18.61;82.10
46009;BME280;39597;51.438;7.006;2022-08-19T04:17:50;99949.59;;;18.70;81.66
46009;BME280;39597;51.438;7.006;2022-08-19T04:20:16;99951.09;;;18.39;82.84
46009;BME280;39597;51.438;7.006;2022-08-19T04:22:42;99957.75;;;18.30;82.96
46009;BME280;39597;51.438;7.006;2022-08-19T04:25:07;99966.81;;;18.24;83.26
46009;BME280;39597;51.438;7.006;2022-08-19T04:27:33;99960.03;;;17.96;85.23
46009;BME280;39597;51.438;7.006;2022-08-19T04:29:59;99963.16;;;17.81;86.29
46009;BME280;39597;51.438;7.006;2022-08-19T04:32:24;99958.44;;;17.81;86.40
46009;BME280;39597;51.438;7.006;2022-08-19T04:34:49;99963.94;;;17.81;86.42
46009;BME280;39597;51.438;7.006;2022-08-19T04:37:15;99959.22;;;17.89;86.19
46009;BME280;39597;51.438;7.006;2022-08-19T04:39:40;99962.00;;;17.96;85.83
46009;BME280;39597;51.438;7.006;2022-08-19T04:42:24;99965.53;;;17.96;85.53
46009;BME280;39597;51.438;7.006;2022-08-19T04:45:07;99974.97;;;17.92;86.25
46009;BME280;39597;51.438;7.006;2022-08-19T04:47:35;99972.22;;;17.95;85.78
46009;BME280;39597;51.438;7.006;2022-08-19T04:50:02;99979.69;;;17.91;86.02
46009;BME280;39597;51.438;7.006;2022-08-19T04:52:29;99965.53;;;17.96;86.06
46009;BME280;39597;51.438;7.006;2022-08-19T04:54:57;99976.22;;;18.01;86.08
46009;BME280;39597;51.438;7.006;2022-08-19T04:57:23;99985.22;;;17.95;86.16
46009;BME280;39597;51.438;7.006;2022-08-19T04:59:48;99984.56;;;18.33;84.37
46009;BME280;39597;51.438;7.006;2022-08-19T05:02:14;99982.28;;;18.71;82.01
46009;BME280;39597;51.438;7.006;2022-08-19T05:04:39;99981.44;;;18.60;81.86
46009;BME280;39597;51.438;7.006;2022-08-19T05:07:05;99988.91;;;18.45;82.32
46009;BME280;39597;51.438;7.006;2022-08-19T05:09:31;99991.66;;;18.34;82.81
46009;BME280;39597;51.438;7.006;2022-08-19T05:11:56;99998.69;;;18.21;83.49
46009;BME280;39597;51.438;7.006;2022-08-19T05:14:21;99996.66;;;18.04;84.03
46009;BME280;39597;51.438;7.006;2022-08-19T05:16:48;99995.84;;;17.96;84.67
46009;BME280;39597;51.438;7.006;2022-08-19T05:19:13;99996.63;;;17.97;84.83
46009;BME280;39597;51.438;7.006;2022-08-19T05:21:57;100003.31;;;17.96;84.94
46009;BME280;39597;51.438;7.006;2022-08-19T05:24:42;100007.66;;;17.97;84.95
46009;BME280;39597;51.438;7.006;2022-08-19T05:27:07;100002.13;;;17.97;84.81
46009;BME280;39597;51.438;7.006;2022-08-19T05:29:33;100005.31;;;17.99;84.86
46009;BME280;39597;51.438;7.006;2022-08-19T05:32:00;100005.72;;;18.01;84.89
46009;BME280;39597;51.438;7.006;2022-08-19T05:34:26;100007.31;;;18.09;84.34
46009;BME280;39597;51.438;7.006;2022-08-19T05:36:57;100016.75;;;18.12;84.34
46009;BME280;39597;51.438;7.006;2022-08-19T05:39:25;100019.13;;;18.13;84.57
46009;BME280;39597;51.438;7.006;2022-08-19T05:42:11;100012.03;;;18.12;84.82
46009;BME280;39597;51.438;7.006;2022-08-19T05:44:55;100014.03;;;18.15;85.34
46009;BME280;39597;51.438;7.006;2022-08-19T05:47:21;100010.13;;;18.27;84.80
46009;BME280;39597;51.438;7.006;2022-08-19T05:49:47;100012.88;;;18.30;84.14
46009;BME280;39597;51.438;7.006;2022-08-19T05:52:15;100019.22;;;18.42;85.04
46009;BME280;39597;51.438;7.006;2022-08-19T05:54:41;100016.09;;;18.43;84.35
46009;BME280;39597;51.438;7.006;2022-08-19T05:57:08;100016.91;;;18.58;83.79
46009;BME280;39597;51.438;7.006;2022-08-19T05:59:34;100021.63;;;18.61;83.88
46009;BME280;39597;51.438;7.006;2022-08-19T06:02:01;100011.84;;;18.71;83.18
46009;BME280;39597;51.438;7.006;2022-08-19T06:04:27;99995.69;;;18.90;82.62
46009;BME280;39597;51.438;7.006;2022-08-19T06:06:53;99991.38;;;18.89;82.38
46009;BME280;39597;51.438;7.006;2022-08-19T06:09:20;99994.53;;;18.99;82.97
46009;BME280;39597;51.438;7.006;2022-08-19T06:11:49;99999.25;;;18.91;83.49
46009;BME280;39597;51.438;7.006;2022-08-19T06:14:20;100003.19;;;19.04;82.57
46009;BME280;39597;51.438;7.006;2022-08-19T06:16:46;100005.53;;;19.13;82.38
46009;BME280;39597;51.438;7.006;2022-08-19T06:19:17;99999.22;;;19.27;82.29
46009;BME280;39597;51.438;7.006;2022-08-19T06:21:45;100003.56;;;19.31;82.59
46009;BME280;39597;51.438;7.006;2022-08-19T06:24:13;100005.16;;;19.36;81.71
46009;BME280;39597;51.438;7.006;2022-08-19T06:26:42;100000.81;;;19.28;82.16
46009;BME280;39597;51.438;7.006;2022-08-19T06:29:10;100009.06;;;19.31;82.39
46009;BME280;39597;51.438;7.006;2022-08-19T06:31:36;100011.47;;;19.15;82.95
46009;BME280;39597;51.438;7.006;2022-08-19T06:34:04;100011.47;;;19.08;83.39
46009;BME280;39597;51.438;7.006;2022-08-19T06:36:33;100011.88;;;18.99;84.13
46009;BME280;39597;51.438;7.006;2022-08-19T06:39:07;100005.94;;;19.08;83.82
46009;BME280;39597;51.438;7.006;2022-08-19T06:41:35;100009.13;;;19.17;83.15
46009;BME280;39597;51.438;7.006;2022-08-19T06:44:03;100004.75;;;19.23;82.65
46009;BME280;39597;51.438;7.006;2022-08-19T06:46:28;100001.63;;;19.03;83.55
46009;BME280;39597;51.438;7.006;2022-08-19T06:48:54;100005.94;;;18.97;83.95
46009;BME280;39597;51.438;7.006;2022-08-19T06:51:21;100013.44;;;19.00;84.21
46009;BME280;39597;51.438;7.006;2022-08-19T06:53:47;100012.25;;;19.05;83.90
46009;BME280;39597;51.438;7.006;2022-08-19T06:56:15;100014.25;;;19.01;83.89
46009;BME280;39597;51.438;7.006;2022-08-19T06:58:41;100015.00;;;19.08;83.39
46009;BME280;39597;51.438;7.006;2022-08-19T07:01:07;100008.72;;;19.15;83.30
46009;BME280;39597;51.438;7.006;2022-08-19T07:03:35;100005.13;;;19.39;82.23
46009;BME280;39597;51.438;7.006;2022-08-19T07:06:06;100006.69;;;19.72;80.98
46009;BME280;39597;51.438;7.006;2022-08-19T07:08:33;100009.00;;;19.85;80.58
46009;BME280;39597;51.438;7.006;2022-08-19T07:10:59;100005.06;;;19.82;80.69
46009;BME280;39597;51.438;7.006;2022-08-19T07:13:25;100001.50;;;19.85;79.94
46009;BME280;39597;51.438;7.006;2022-08-19T07:15:51;100012.53;;;19.92;79.75
46009;BME280;39597;51.438;7.006;2022-08-19T07:18:19;100001.88;;;19.91;79.83
46009;BME280;39597;51.438;7.006;2022-08-19T07:20:46;100011.03;;;19.63;80.58
46009;BME280;39597;51.438;7.006;2022-08-19T07:23:12;100021.66;;;19.78;80.29
46009;BME280;39597;51.438;7.006;2022-08-19T07:25:38;100019.31;;;19.63;80.77
46009;BME280;39597;51.438;7.006;2022-08-19T07:28:04;100015.75;;;19.69;80.99
46009;BME280;39597;51.438;7.006;2022-08-19T07:30:30;100029.16;;;19.74;80.95
46009;BME280;39597;51.438;7.006;2022-08-19T07:32:55;100033.06;;;19.88;80.63
46009;BME280;39597;51.438;7.006;2022-08-19T07:35:22;100034.28;;;19.83;80.64
46009;BME280;39597;51.438;7.006;2022-08-19T07:37:49;100039.41;;;19.85;80.54
46009;BME280;39597;51.438;7.006;2022-08-19T07:40:14;100049.69;;;19.70;81.40
46009;BME280;39597;51.438;7.006;2022-08-19T07:42:40;100046.16;;;19.66;81.55
46009;BME280;39597;51.438;7.006;2022-08-19T07:45:06;100054.84;;;19.57;82.12
46009;BME280;39597;51.438;7.006;2022-08-19T07:47:32;100061.56;;;19.56;82.18
46009;BME280;39597;51.438;7.006;2022-08-19T07:49:57;100063.91;;;19.50;81.90
46009;BME280;39597;51.438;7.006;2022-08-19T07:52:23;100059.97;;;19.59;82.06
46009;BME280;39597;51.438;7.006;2022-08-19T07:54:48;100065.88;;;19.64;81.79
46009;BME280;39597;51.438;7.006;2022-08-19T07:57:15;100061.13;;;19.82;81.28
46009;BME280;39597;51.438;7.006;2022-08-19T07:59:40;100067.84;;;19.60;82.21
46009;BME280;39597;51.438;7.006;2022-08-19T08:02:06;100073.72;;;19.80;81.59
46009;BME280;39597;51.438;7.006;2022-08-19T08:04:31;100073.34;;;19.89;81.53
46009;BME280;39597;51.438;7.006;2022-08-19T08:07:16;100081.59;;;20.03;80.90
46009;BME280;39597;51.438;7.006;2022-08-19T08:10:01;100078.00;;;20.09;80.62
46009;BME280;39597;51.438;7.006;2022-08-19T08:12:34;100080.72;;;20.24;80.05
46009;BME280;39597;51.438;7.006;2022-08-19T08:15:03;100084.25;;;20.35;79.96
46009;BME280;39597;51.438;7.006;2022-08-19T08:17:31;100078.69;;;20.49;78.97
46009;BME280;39597;51.438;7.006;2022-08-19T08:19:57;100075.41;;;20.68;78.49
46009;BME280;39597;51.438;7.006;2022-08-19T08:22:23;100079.19;;;20.96;77.40
46009;BME280;39597;51.438;7.006;2022-08-19T08:25:18;100084.53;;;21.21;76.60
46009;BME280;39597;51.438;7.006;2022-08-19T08:27:45;100078.41;;;21.47;75.92
46009;BME280;39597;51.438;7.006;2022-08-19T08:30:22;100076.09;;;21.42;74.90
46009;BME280;39597;51.438;7.006;2022-08-19T08:32:49;100075.88;;;21.67;74.41
46009;BME280;39597;51.438;7.006;2022-08-19T08:35:18;100078.88;;;21.80;74.45
46009;BME280;39597;51.438;7.006;2022-08-19T08:37:45;100079.06;;;22.00;73.31
46009;BME280;39597;51.438;7.006;2022-08-19T08:40:20;100076.16;;;21.76;73.63
46009;BME280;39597;51.438;7.006;2022-08-19T08:42:57;100079.25;;;21.85;72.90
46009;BME280;39597;51.438;7.006;2022-08-19T08:45:26;100081.31;;;21.74;71.58
46009;BME280;39597;51.438;7.006;2022-08-19T08:47:53;100083.72;;;21.72;72.08
46009;BME280;39597;51.438;7.006;2022-08-19T08:50:32;100080.50;;;21.77;70.43
46009;BME280;39597;51.438;7.006;2022-08-19T08:53:01;100082.31;;;21.95;69.56
46009;BME280;39597;51.438;7.006;2022-08-19T08:55:29;100077.06;;;22.04;69.41
46009;BME280;39597;51.438;7.006;2022-08-19T08:58:04;100073.59;;;22.30;68.97
46009;BME280;39597;51.438;7.006;2022-08-19T09:00:37;100081.09;;;22.64;67.83
46009;BME280;39597;51.438;7.006;2022-08-19T09:03:07;100084.94;;;22.73;66.17
46009;BME280;39597;51.438;7.006;2022-08-19T09:08:26;100076.91;;;22.52;67.00
46009;BME280;39597;51.438;7.006;2022-08-19T09:10:57;100073.41;;;22.44;66.50
46009;BME280;39597;51.438;7.006;2022-08-19T09:16:13;100077.56;;;22.60;66.43
46009;BME280;39597;51.438;7.006;2022-08-19T09:18:43;100073.81;;;22.73;65.54
46009;BME280;39597;51.438;7.006;2022-08-19T09:21:09;100073.78;;;22.77;65.97
46009;BME280;39597;51.438;7.006;2022-08-19T09:23:36;100073.53;;;22.34;66.38
46009;BME280;39597;51.438;7.006;2022-08-19T09:26:10;100084.34;;;22.59;65.74
46009;BME280;39597;51.438;7.006;2022-08-19T09:28:39;100073.19;;;22.62;65.11
46009;BME280;39597;51.438;7.006;2022-08-19T09:31:09;100070.41;;;22.62;64.39
46009;BME280;39597;51.438;7.006;2022-08-19T09:33:35;100080.34;;;22.90;63.60
46009;BME280;39597;51.438;7.006;2022-08-19T09:36:09;100079.00;;;23.02;63.27
46009;BME280;39597;51.438;7.006;2022-08-19T09:38:36;100070.19;;;23.07;63.14
46009;BME280;39597;51.438;7.006;2022-08-19T09:41:06;100071.13;;;22.97;62.46
46009;BME280;39597;51.438;7.006;2022-08-19T09:43:33;100079.78;;;23.02;61.90
46009;BME280;39597;51.438;7.006;2022-08-19T09:46:05;100073.75;;;23.07;62.49
46009;BME280;39597;51.438;7.006;2022-08-19T09:48:34;100078.25;;;22.98;60.73
46009;BME280;39597;51.438;7.006;2022-08-19T09:51:08;100083.00;;;23.24;60.78
46009;BME280;39597;51.438;7.006;2022-08-19T09:53:35;100077.22;;;23.38;60.66
46009;BME280;39597;51.438;7.006;2022-08-19T09:56:02;100065.78;;;23.33;61.08
46009;BME280;39597;51.438;7.006;2022-08-19T09:58:28;100067.66;;;23.39;60.80
46009;BME280;39597;51.438;7.006;2022-08-19T10:00:57;100058.66;;;23.55;60.56
46009;BME280;39597;51.438;7.006;2022-08-19T10:03:24;100074.13;;;23.56;60.11
46009;BME280;39597;51.438;7.006;2022-08-19T10:05:50;100066.75;;;23.23;60.44
46009;BME280;39597;51.438;7.006;2022-08-19T10:08:18;100058.44;;;23.23;61.02
46009;BME280;39597;51.438;7.006;2022-08-19T10:10:45;100058.63;;;23.35;61.01
46009;BME280;39597;51.438;7.006;2022-08-19T10:13:11;100067.66;;;23.63;60.44
46009;BME280;39597;51.438;7.006;2022-08-19T10:15:37;100065.31;;;23.38;60.35
46009;BME280;39597;51.438;7.006;2022-08-19T10:18:05;100064.88;;;23.39;60.33
46009;BME280;39597;51.438;7.006;2022-08-19T10:20:30;100064.19;;;23.59;60.51
46009;BME280;39597;51.438;7.006;2022-08-19T10:22:56;100062.63;;;23.78;59.88
46009;BME280;39597;51.438;7.006;2022-08-19T10:25:21;100059.88;;;23.78;59.34
46009;BME280;39597;51.438;7.006;2022-08-19T10:27:46;100063.63;;;23.44;59.95
46009;BME280;39597;51.438;7.006;2022-08-19T10:30:12;100066.88;;;23.39;60.17
46009;BME280;39597;51.438;7.006;2022-08-19T10:32:38;100057.69;;;23.65;59.66
46009;BME280;39597;51.438;7.006;2022-08-19T10:35:04;100053.09;;;23.79;59.55
46009;BME280;39597;51.438;7.006;2022-08-19T10:37:34;100044.91;;;23.91;59.42
46009;BME280;39597;51.438;7.006;2022-08-19T10:39:59;100041.63;;;23.96;59.64
46009;BME280;39597;51.438;7.006;2022-08-19T10:42:26;100048.63;;;24.05;59.84
46009;BME280;39597;51.438;7.006;2022-08-19T10:44:55;100037.94;;;24.03;58.97
46009;BME280;39597;51.438;7.006;2022-08-19T10:47:21;100056.81;;;23.92;57.96
46009;BME280;39597;51.438;7.006;2022-08-19T10:49:48;100054.19;;;24.24;57.49
46009;BME280;39597;51.438;7.006;2022-08-19T10:52:32;100044.03;;;24.54;55.87
46009;BME280;39597;51.438;7.006;2022-08-19T10:55:03;100046.56;;;23.89;56.60
46009;BME280;39597;51.438;7.006;2022-08-19T10:57:48;100051.09;;;23.99;58.06
46009;BME280;39597;51.438;7.006;2022-08-19T11:00:14;100044.28;;;23.60;57.71
46009;BME280;39597;51.438;7.006;2022-08-19T11:02:39;100051.78;;;23.63;58.11
46009;BME280;39597;51.438;7.006;2022-08-19T11:05:06;100058.19;;;23.60;58.60
46009;BME280;39597;51.438;7.006;2022-08-19T11:07:32;100048.81;;;23.94;58.00
46009;BME280;39597;51.438;7.006;2022-08-19T11:09:57;100056.25;;;24.20;57.58
46009;BME280;39597;51.438;7.006;2022-08-19T11:12:23;100052.78;;;24.36;56.25
46009;BME280;39597;51.438;7.006;2022-08-19T11:14:49;100057.81;;;24.21;56.80
46009;BME280;39597;51.438;7.006;2022-08-19T11:17:15;100050.53;;;23.88;56.15
46009;BME280;39597;51.438;7.006;2022-08-19T11:19:40;100055.03;;;24.01;56.73
46009;BME280;39597;51.438;7.006;2022-08-19T11:22:08;100053.81;;;23.83;57.38
46009;BME280;39597;51.438;7.006;2022-08-19T11:24:35;100050.09;;;23.69;57.35
46009;BME280;39597;51.438;7.006;2022-08-19T11:27:04;100053.41;;;24.04;57.31
46009;BME280;39597;51.438;7.006;2022-08-19T11:29:30;100050.03;;;23.93;56.43
46009;BME280;39597;51.438;7.006;2022-08-19T11:31:56;100049.50;;;23.58;57.74
46009;BME280;39597;51.438;7.006;2022-08-19T11:34:25;100049.13;;;23.56;57.60
46009;BME280;39597;51.438;7.006;2022-08-19T11:36:52;100049.59;;;23.75;57.73
46009;BME280;39597;51.438;7.006;2022-08-19T11:39:21;100051.38;;;23.85;56.36
46009;BME280;39597;51.438;7.006;2022-08-19T11:41:47;100046.28;;;24.03;57.23
46009;BME280;39597;51.438;7.006;2022-08-19T11:44:13;100040.00;;;24.39;54.72
46009;BME280;39597;51.438;7.006;2022-08-19T11:46:40;100046.47;;;24.68;53.96
46009;BME280;39597;51.438;7.006;2022-08-19T11:49:06;100039.19;;;24.74;52.41
46009;BME280;39597;51.438;7.006;2022-08-19T11:51:34;100032.47;;;25.08;52.14
46009;BME280;39597;51.438;7.006;2022-08-19T11:54:00;100031.59;;;25.11;50.80
46009;BME280;39597;51.438;7.006;2022-08-19T11:56:27;100026.84;;;24.92;50.00
46009;BME280;39597;51.438;7.006;2022-08-19T11:58:54;100033.38;;;24.85;51.75
46009;BME280;39597;51.438;7.006;2022-08-19T12:01:21;100023.09;;;24.98;51.68
46009;BME280;39597;51.438;7.006;2022-08-19T12:03:49;100024.19;;;25.04;52.47
46009;BME280;39597;51.438;7.006;2022-08-19T12:06:20;100033.09;;;24.79;52.19
46009;BME280;39597;51.438;7.006;2022-08-19T12:08:50;100034.78;;;24.93;51.72
46009;BME280;39597;51.438;7.006;2022-08-19T12:11:16;100031.97;;;24.77;51.85
46009;BME280;39597;51.438;7.006;2022-08-19T12:13:42;100032.22;;;24.66;52.38
46009;BME280;39597;51.438;7.006;2022-08-19T12:16:15;100022.84;;;24.76;52.30
46009;BME280;39597;51.438;7.006;2022-08-19T12:18:43;100023.50;;;24.28;53.36
46009;BME280;39597;51.438;7.006;2022-08-19T12:21:13;100018.22;;;24.34;52.90
46009;BME280;39597;51.438;7.006;2022-08-19T12:23:40;100023.00;;;24.53;53.01
46009;BME280;39597;51.438;7.006;2022-08-19T12:26:06;100019.47;;;25.01;51.60
46009;BME280;39597;51.438;7.006;2022-08-19T12:28:32;100010.69;;;24.86;50.04
46009;BME280;39597;51.438;7.006;2022-08-19T12:30:57;100014.66;;;25.34;49.71
46009;BME280;39597;51.438;7.006;2022-08-19T12:33:23;100010.44;;;25.75;48.26
46009;BME280;39597;51.438;7.006;2022-08-19T12:35:52;100009.63;;;26.03;47.42
46009;BME280;39597;51.438;7.006;2022-08-19T12:38:18;100009.41;;;25.53;48.06
46009;BME280;39597;51.438;7.006;2022-08-19T12:40:47;100014.84;;;25.43;48.97
46009;BME280;39597;51.438;7.006;2022-08-19T12:43:14;100011.53;;;25.32;48.75
46009;BME280;39597;51.438;7.006;2022-08-19T12:45:41;100010.25;;;25.21;49.12
46009;BME280;39597;51.438;7.006;2022-08-19T12:48:08;100011.16;;;25.46;49.09
46009;BME280;39597;51.438;7.006;2022-08-19T12:50:33;100016.06;;;25.42;48.82
46009;BME280;39597;51.438;7.006;2022-08-19T12:52:58;100011.38;;;25.23;48.72
46009;BME280;39597;51.438;7.006;2022-08-19T12:55:24;100009.22;;;25.60;46.90
46009;BME280;39597;51.438;7.006;2022-08-19T12:57:50;100006.44;;;26.30;46.03
46009;BME280;39597;51.438;7.006;2022-08-19T13:00:18;100008.31;;;26.21;44.67
46009;BME280;39597;51.438;7.006;2022-08-19T13:02:47;100008.59;;;26.64;42.30
46009;BME280;39597;51.438;7.006;2022-08-19T13:05:25;100015.84;;;27.47;41.04
46009;BME280;39597;51.438;7.006;2022-08-19T13:07:52;100002.00;;;28.00;39.83